createdAt,value
2018-09-05T00:01:38.641Z,11.70
2018-09-05T00:04:07.160Z,13.77
2018-09-05T00:06:35.946Z,12.30
2018-09-05T00:09:05.080Z,13.67
2018-09-05T00:11:33.821Z,13.73
2018-09-05T00:14:02.593Z,12.13
2018-09-05T00:16:31.012Z,12.73
2018-09-05T00:18:59.826Z,13.17
2018-09-05T00:21:28.607Z,14.10
2018-09-05T00:23:57.315Z,10.93
2018-09-05T00:26:25.899Z,14.73
2018-09-05T00:28:53.956Z,13.00
2018-09-05T00:31:22.377Z,12.40
2018-09-05T00:33:50.813Z,12.93
2018-09-05T00:36:19.235Z,13.50
2018-09-05T00:38:47.367Z,14.63
2018-09-05T00:41:15.794Z,11.47
2018-09-05T00:43:44.297Z,14.03
2018-09-05T00:46:12.711Z,13.57
2018-09-05T00:48:40.790Z,11.50
2018-09-05T00:51:09.629Z,13.13
2018-09-05T00:53:38.391Z,12.97
2018-09-05T00:56:06.511Z,13.60
2018-09-05T00:58:34.956Z,13.30
2018-09-05T01:01:03.384Z,14.90
2018-09-05T01:03:32.124Z,14.60
2018-09-05T01:06:00.883Z,12.20
2018-09-05T01:08:29.806Z,20.27
2018-09-05T01:10:58.571Z,14.57
2018-09-05T01:13:27.368Z,15.50
2018-09-05T01:15:56.171Z,14.33
2018-09-05T01:18:24.246Z,14.93
2018-09-05T01:20:52.679Z,13.63
2018-09-05T01:23:21.475Z,14.37
2018-09-05T01:25:49.905Z,16.47
2018-09-05T01:28:18.071Z,16.53
2018-09-05T01:30:46.546Z,18.60
2018-09-05T01:33:15.286Z,14.80
2018-09-05T01:35:43.341Z,14.30
2018-09-05T01:38:12.102Z,15.60
2018-09-05T01:40:40.498Z,17.00
2018-09-05T01:43:08.994Z,15.00
2018-09-05T01:45:37.148Z,14.90
2018-09-05T01:48:05.467Z,12.90
2018-09-05T01:50:39.471Z,14.33
2018-09-05T01:53:07.901Z,17.13
2018-09-05T01:55:36.699Z,16.77
2018-09-05T01:58:04.814Z,19.03
2018-09-05T02:00:34.330Z,15.87
2018-09-05T02:03:04.214Z,17.03
2018-09-05T02:05:32.658Z,18.83
2018-09-05T02:08:02.369Z,15.43
2018-09-05T02:10:32.054Z,16.03
2018-09-05T02:13:01.130Z,15.10
2018-09-05T02:15:29.377Z,13.20
2018-09-05T02:17:57.822Z,17.70
2018-09-05T02:20:26.585Z,16.70
2018-09-05T02:22:55.333Z,20.00
2018-09-05T02:25:23.754Z,20.93
2018-09-05T02:27:52.520Z,18.03
2018-09-05T02:30:20.991Z,17.60
2018-09-05T02:32:49.102Z,20.17
2018-09-05T02:35:17.894Z,16.07
2018-09-05T02:37:46.770Z,19.80
2018-09-05T02:40:14.975Z,21.20
2018-09-05T02:42:43.548Z,21.83
2018-09-05T02:45:11.973Z,24.27
2018-09-05T02:47:40.426Z,26.97
2018-09-05T02:50:15.407Z,24.80
2018-09-05T02:52:44.493Z,34.23
2018-09-05T02:55:17.441Z,31.80
2018-09-05T02:57:45.915Z,36.53
2018-09-05T03:00:14.649Z,38.50
2018-09-05T03:02:43.624Z,39.43
2018-09-05T03:05:12.407Z,41.00
2018-09-05T03:07:41.179Z,39.40
2018-09-05T03:10:09.369Z,44.67
2018-09-05T03:12:38.202Z,42.50
2018-09-05T03:15:07.023Z,40.23
2018-09-05T03:17:35.511Z,40.97
2018-09-05T03:20:03.622Z,45.03
2018-09-05T03:22:32.470Z,43.40
2018-09-05T03:25:01.264Z,48.00
2018-09-05T03:27:30.106Z,53.70
2018-09-05T03:29:58.902Z,43.47
2018-09-05T03:32:27.735Z,47.83
2018-09-05T03:34:56.038Z,49.07
2018-09-05T03:37:24.795Z,45.43
2018-09-05T03:39:53.893Z,51.03
2018-09-05T03:42:22.668Z,46.43
2018-09-05T03:44:51.447Z,43.83
2018-09-05T03:47:20.204Z,45.63
2018-09-05T03:49:48.728Z,46.30
2018-09-05T03:52:17.134Z,48.17
2018-09-05T03:54:45.703Z,44.97
2018-09-05T03:57:14.700Z,50.60
2018-09-05T03:59:43.196Z,45.57
2018-09-05T04:02:11.732Z,47.70
2018-09-05T04:04:40.611Z,50.43
2018-09-05T04:07:09.508Z,50.70
2018-09-05T04:09:38.246Z,47.23
2018-09-05T04:12:06.407Z,44.43
2018-09-05T04:14:35.329Z,50.37
2018-09-05T04:17:04.151Z,47.40
2018-09-05T04:19:33.007Z,45.30
2018-09-05T04:22:01.898Z,49.20
2018-09-05T04:24:31.141Z,43.23
2018-09-05T04:26:59.928Z,45.40
2018-09-05T04:29:28.713Z,43.00
2018-09-05T04:31:56.950Z,42.93
2018-09-05T04:34:25.427Z,44.67
2018-09-05T04:36:54.344Z,47.23
2018-09-05T04:39:23.147Z,46.73
2018-09-05T04:41:51.218Z,46.47
2018-09-05T04:44:19.995Z,46.47
2018-09-05T04:46:48.730Z,47.70
2018-09-05T04:49:17.493Z,48.57
2018-09-05T04:51:45.935Z,44.33
2018-09-05T04:54:14.745Z,47.93
2018-09-05T04:56:43.534Z,46.67
2018-09-05T04:59:12.323Z,41.13
2018-09-05T05:01:41.118Z,44.50
2018-09-05T05:04:09.915Z,41.70
2018-09-05T05:06:38.922Z,38.67
2018-09-05T05:09:09.289Z,45.70
2018-09-05T05:11:38.226Z,46.77
2018-09-05T05:14:06.336Z,43.70
2018-09-05T05:16:35.156Z,38.13
2018-09-05T05:19:04.225Z,40.30
2018-09-05T05:21:32.408Z,44.43
2018-09-05T05:24:00.793Z,35.93
2018-09-05T05:26:29.527Z,34.70
2018-09-05T05:28:57.899Z,36.67
2018-09-05T05:31:26.281Z,31.33
2018-09-05T05:33:54.686Z,33.23
2018-09-05T05:36:23.507Z,33.00
2018-09-05T05:38:51.902Z,33.03
2018-09-05T05:41:20.369Z,31.40
2018-09-05T05:43:49.142Z,29.10
2018-09-05T05:46:17.673Z,27.53
2018-09-05T05:48:46.184Z,26.93
2018-09-05T05:51:14.731Z,26.20
2018-09-05T05:53:43.508Z,27.83
2018-09-05T05:56:12.753Z,26.30
2018-09-05T05:58:41.506Z,31.03
2018-09-05T06:01:10.349Z,30.60
2018-09-05T06:03:38.893Z,29.07
2018-09-05T06:06:07.862Z,29.40
2018-09-05T06:08:36.814Z,26.70
2018-09-05T06:11:05.134Z,25.97
2018-09-05T06:13:33.572Z,25.53
2018-09-05T06:16:02.350Z,26.30
2018-09-05T06:18:31.069Z,27.27
2018-09-05T06:20:59.811Z,25.13
2018-09-05T06:23:28.459Z,21.73
2018-09-05T06:25:56.968Z,24.67
2018-09-05T06:28:25.825Z,24.60
2018-09-05T06:30:54.721Z,22.70
2018-09-05T06:33:23.644Z,27.37
2018-09-05T06:35:52.451Z,20.87
2018-09-05T06:38:21.271Z,23.57
2018-09-05T06:40:49.649Z,20.20
2018-09-05T06:43:18.081Z,20.43
2018-09-05T06:45:46.965Z,17.60
2018-09-05T06:48:15.406Z,18.63
2018-09-05T06:50:44.165Z,19.33
2018-09-05T06:53:12.603Z,21.23
2018-09-05T06:55:41.474Z,23.17
2018-09-05T06:58:10.255Z,24.63
2018-09-05T07:00:39.319Z,62.07
2018-09-05T07:03:07.875Z,33.80
2018-09-05T07:05:39.049Z,21.20
2018-09-05T07:08:07.380Z,20.80
2018-09-05T07:10:36.880Z,24.87
2018-09-05T07:13:05.521Z,20.80
2018-09-05T07:15:34.235Z,16.57
2018-09-05T07:18:02.994Z,20.80
2018-09-05T07:20:31.878Z,20.20
2018-09-05T07:23:00.356Z,18.10
2018-09-05T07:25:28.788Z,19.20
2018-09-05T07:27:57.186Z,19.43
2018-09-05T07:30:26.025Z,17.00
2018-09-05T07:32:54.958Z,19.73
2018-09-05T07:35:23.513Z,17.30
2018-09-05T07:37:51.732Z,20.13
2018-09-05T07:40:20.262Z,17.93
2018-09-05T07:42:48.666Z,17.03
2018-09-05T07:45:17.435Z,14.53
2018-09-05T07:47:45.585Z,15.83
2018-09-05T07:50:14.478Z,22.47
2018-09-05T07:52:43.231Z,14.87
2018-09-05T07:55:12.052Z,16.03
2018-09-05T07:57:40.880Z,13.37
2018-09-05T08:00:08.982Z,14.00
2018-09-05T08:02:37.799Z,19.70
2018-09-05T08:05:05.848Z,12.87
2018-09-05T08:07:34.249Z,12.83
2018-09-05T08:10:03.505Z,13.07
2018-09-05T08:12:32.375Z,12.40
2018-09-05T08:15:01.226Z,12.20
2018-09-05T08:17:29.967Z,17.63
2018-09-05T08:19:58.868Z,13.50
2018-09-05T08:22:27.692Z,14.20
2018-09-05T08:24:56.475Z,56.83
2018-09-05T08:27:25.233Z,15.73
2018-09-05T08:29:53.736Z,13.77
2018-09-05T08:32:22.815Z,12.93
2018-09-05T08:34:51.730Z,12.40
2018-09-05T08:37:20.473Z,16.23
2018-09-05T08:39:49.253Z,12.63
2018-09-05T08:42:17.452Z,11.83
2018-09-05T08:44:46.727Z,11.77
2018-09-05T08:47:14.645Z,12.07
2018-09-05T08:49:43.607Z,13.23
2018-09-05T08:52:12.392Z,13.10
2018-09-05T08:54:41.111Z,12.97
2018-09-05T08:57:09.865Z,14.33
2018-09-05T08:59:38.360Z,11.60
2018-09-05T09:02:06.437Z,10.07
2018-09-05T09:04:35.778Z,10.43
2018-09-05T09:07:04.143Z,14.47
2018-09-05T09:09:32.902Z,12.27
2018-09-05T09:12:01.683Z,13.77
2018-09-05T09:14:30.434Z,12.67
2018-09-05T09:16:59.230Z,12.00
2018-09-05T09:19:27.643Z,32.43
2018-09-05T09:21:56.575Z,8.17
2018-09-05T09:24:25.550Z,10.23
2018-09-05T09:26:53.974Z,8.53
2018-09-05T09:29:25.636Z,9.43
2018-09-05T09:31:54.592Z,8.30
2018-09-05T09:34:23.368Z,8.83
2018-09-05T09:36:51.830Z,10.23
2018-09-05T09:39:20.297Z,13.63
2018-09-05T09:41:50.108Z,10.83
2018-09-05T09:44:19.508Z,19.20
2018-09-05T09:46:47.969Z,60.13
2018-09-05T09:49:16.369Z,9.63
2018-09-05T09:51:44.797Z,11.13
2018-09-05T09:54:13.595Z,18.53
2018-09-05T09:56:41.709Z,9.17
2018-09-05T09:59:10.602Z,10.73
2018-09-05T10:01:44.939Z,13.03
2018-09-05T10:04:19.275Z,9.97
2018-09-05T10:06:50.146Z,8.87
2018-09-05T10:09:24.461Z,8.77
2018-09-05T10:11:58.823Z,8.97
2018-09-05T10:14:32.840Z,8.67
2018-09-05T10:17:06.843Z,7.47
2018-09-05T10:19:35.867Z,7.50
2018-09-05T10:22:03.934Z,7.47
2018-09-05T10:24:32.678Z,10.30
2018-09-05T10:27:01.470Z,9.00
2018-09-05T10:29:30.302Z,10.33
2018-09-05T10:31:59.075Z,12.00
2018-09-05T10:34:27.852Z,10.30
2018-09-05T10:37:03.146Z,11.83
2018-09-05T10:39:32.181Z,17.23
2018-09-05T10:42:00.911Z,9.00
2018-09-05T10:44:29.650Z,9.87
2018-09-05T10:46:58.067Z,8.30
2018-09-05T10:49:26.683Z,8.83
2018-09-05T10:51:57.547Z,9.37
2018-09-05T10:54:26.298Z,10.70
2018-09-05T10:56:54.682Z,11.30
2018-09-05T10:59:23.189Z,11.30
2018-09-05T11:01:51.967Z,12.40
2018-09-05T11:04:20.746Z,10.67
2018-09-05T11:06:49.669Z,8.87
2018-09-05T11:09:18.537Z,11.47
2018-09-05T11:11:47.269Z,7.80
2018-09-05T11:14:16.147Z,9.40
2018-09-05T11:16:44.571Z,13.27
2018-09-05T11:19:13.339Z,17.00
2018-09-05T11:21:41.747Z,19.90
2018-09-05T11:24:09.931Z,11.50
2018-09-05T11:26:38.507Z,23.97
2018-09-05T11:29:06.969Z,33.57
2018-09-05T11:31:35.539Z,12.77
2018-09-05T11:34:03.782Z,8.87
2018-09-05T11:36:32.566Z,7.60
2018-09-05T11:39:01.457Z,8.53
2018-09-05T11:41:29.829Z,8.60
2018-09-05T11:43:58.687Z,11.03
2018-09-05T11:46:27.470Z,10.53
2018-09-05T11:48:56.230Z,10.53
2018-09-05T11:51:25.339Z,11.40
2018-09-05T11:53:54.070Z,8.70
2018-09-05T11:56:22.859Z,13.40
2018-09-05T11:58:51.666Z,8.87
2018-09-05T12:01:20.445Z,11.30
2018-09-05T12:03:49.149Z,8.40
2018-09-05T12:06:17.970Z,9.27
2018-09-05T12:08:46.797Z,6.30
2018-09-05T12:11:15.274Z,10.33
2018-09-05T12:13:44.085Z,13.33
2018-09-05T12:16:12.938Z,8.03
2018-09-05T12:18:41.326Z,7.70
2018-09-05T12:21:09.731Z,9.03
2018-09-05T12:23:38.178Z,9.07
2018-09-05T12:26:07.286Z,11.37
2018-09-05T12:28:35.718Z,9.10
2018-09-05T12:31:04.455Z,6.37
2018-09-05T12:33:33.371Z,6.40
2018-09-05T12:36:02.521Z,6.73
2018-09-05T12:38:31.752Z,9.97
2018-09-05T12:41:00.342Z,6.73
2018-09-05T12:43:29.135Z,13.43
2018-09-05T12:45:57.772Z,12.00
2018-09-05T12:48:26.585Z,19.90
2018-09-05T12:50:55.587Z,9.00
2018-09-05T12:53:24.362Z,9.63
2018-09-05T12:55:52.767Z,7.70
2018-09-05T12:58:21.602Z,7.83
2018-09-05T13:00:50.005Z,7.47
2018-09-05T13:03:18.360Z,9.33
2018-09-05T13:05:47.315Z,8.90
2018-09-05T13:08:15.746Z,10.00
2018-09-05T13:10:44.278Z,8.20
2018-09-05T13:13:13.459Z,7.03
2018-09-05T13:15:42.234Z,7.10
2018-09-05T13:18:10.938Z,6.60
2018-09-05T13:20:39.365Z,6.07
2018-09-05T13:23:07.818Z,9.23
2018-09-05T13:25:36.610Z,6.83
2018-09-05T13:28:05.084Z,8.13
2018-09-05T13:30:33.843Z,9.60
2018-09-05T13:33:02.631Z,10.30
2018-09-05T13:35:31.263Z,9.67
2018-09-05T13:38:00.033Z,7.63
2018-09-05T13:40:28.523Z,7.03
2018-09-05T13:42:56.906Z,7.50
2018-09-05T13:45:25.590Z,6.10
2018-09-05T13:47:54.039Z,9.40
2018-09-05T13:50:22.577Z,8.00
2018-09-05T13:52:51.290Z,7.87
2018-09-05T13:55:20.037Z,8.00
2018-09-05T13:57:48.825Z,7.90
2018-09-05T14:00:17.305Z,6.93
2018-09-05T14:02:46.880Z,8.20
2018-09-05T14:05:15.969Z,9.20
2018-09-05T14:07:44.932Z,8.33
2018-09-05T14:10:14.738Z,9.77
2018-09-05T14:12:44.010Z,5.80
2018-09-05T14:15:12.748Z,9.30
2018-09-05T14:17:41.509Z,6.83
2018-09-05T14:20:10.321Z,8.53
2018-09-05T14:22:38.507Z,8.13
2018-09-05T14:25:06.580Z,7.30
2018-09-05T14:27:35.374Z,9.73
2018-09-05T14:30:03.850Z,7.47
2018-09-05T14:32:31.902Z,12.07
2018-09-05T14:35:00.741Z,7.10
2018-09-05T14:37:29.488Z,9.10
2018-09-05T14:39:58.246Z,10.73
2018-09-05T14:42:27.009Z,13.87
2018-09-05T14:44:55.523Z,8.50
2018-09-05T14:47:24.225Z,10.03
2018-09-05T14:49:53.093Z,6.10
2018-09-05T14:52:21.551Z,9.00
2018-09-05T14:54:49.997Z,7.37
2018-09-05T14:57:18.747Z,10.90
2018-09-05T14:59:47.816Z,7.57
2018-09-05T15:02:16.455Z,12.33
2018-09-05T15:04:45.026Z,11.47
2018-09-05T15:07:13.789Z,6.20
2018-09-05T15:09:42.178Z,7.17
2018-09-05T15:12:11.323Z,8.67
2018-09-05T15:14:39.932Z,6.57
2018-09-05T15:17:08.703Z,9.57
2018-09-05T15:19:37.098Z,45.60
2018-09-05T15:22:05.180Z,8.67
2018-09-05T15:24:33.966Z,9.37
2018-09-05T15:27:02.810Z,11.93
2018-09-05T15:29:31.637Z,6.43
2018-09-05T15:32:00.439Z,7.43
2018-09-05T15:34:28.894Z,8.90
2018-09-05T15:36:57.361Z,14.20
2018-09-05T15:39:25.829Z,10.00
2018-09-05T15:41:54.755Z,9.80
2018-09-05T15:44:23.999Z,12.30
2018-09-05T15:46:52.829Z,8.50
2018-09-05T15:49:21.723Z,12.87
2018-09-05T15:51:54.435Z,8.33
2018-09-05T15:54:25.046Z,11.33
2018-09-05T15:56:54.217Z,36.57
2018-09-05T15:59:23.292Z,10.50
2018-09-05T16:01:52.546Z,9.07
2018-09-05T16:04:21.575Z,7.37
2018-09-05T16:06:50.360Z,8.73
2018-09-05T16:09:18.790Z,7.23
2018-09-05T16:11:47.609Z,7.57
2018-09-05T16:14:16.413Z,10.67
2018-09-05T16:16:45.162Z,11.33
2018-09-05T16:19:13.922Z,8.50
2018-09-05T16:21:43.079Z,9.70
2018-09-05T16:24:12.129Z,12.73
2018-09-05T16:26:40.963Z,15.93
2018-09-05T16:29:10.143Z,8.87
2018-09-05T16:31:38.563Z,8.53
2018-09-05T16:34:07.053Z,8.70
2018-09-05T16:36:35.940Z,10.57
2018-09-05T16:39:05.850Z,8.03
2018-09-05T16:41:34.251Z,8.03
2018-09-05T16:44:02.402Z,12.20
2018-09-05T16:46:30.758Z,8.80
2018-09-05T16:48:59.162Z,9.60
2018-09-05T16:51:27.919Z,8.93
2018-09-05T16:53:56.741Z,65.43
2018-09-05T16:56:25.312Z,8.70
2018-09-05T16:58:53.717Z,13.23
2018-09-05T17:01:22.456Z,9.47
2018-09-05T17:03:51.418Z,12.20
2018-09-05T17:06:19.528Z,10.83
2018-09-05T17:08:48.330Z,9.40
2018-09-05T17:11:17.121Z,7.90
2018-09-05T17:13:45.552Z,8.83
2018-09-05T17:16:14.508Z,14.00
2018-09-05T17:18:43.147Z,9.97
2018-09-05T17:21:11.570Z,12.80
2018-09-05T17:23:40.017Z,12.57
2018-09-05T17:26:08.926Z,11.90
2018-09-05T17:28:37.755Z,14.80
2018-09-05T17:31:06.144Z,10.80
2018-09-05T17:33:35.247Z,19.97
2018-09-05T17:36:03.395Z,9.83
2018-09-05T17:38:31.843Z,11.40
2018-09-05T17:41:00.808Z,17.10
2018-09-05T17:43:29.536Z,18.70
2018-09-05T17:45:58.266Z,27.13
2018-09-05T17:48:27.119Z,35.87
2018-09-05T17:50:55.586Z,15.53
2018-09-05T17:53:24.291Z,16.10
2018-09-05T17:55:53.239Z,43.47
2018-09-05T17:58:21.342Z,26.83
2018-09-05T18:00:50.064Z,18.80
2018-09-05T18:03:18.845Z,44.57
2018-09-05T18:05:47.563Z,33.03
2018-09-05T18:08:16.221Z,18.30
2018-09-05T18:10:44.824Z,11.73
2018-09-05T18:13:13.589Z,31.90
2018-09-05T18:15:42.346Z,15.93
2018-09-05T18:18:11.162Z,13.43
2018-09-05T18:20:39.964Z,9.40
2018-09-05T18:23:08.860Z,12.53
2018-09-05T18:25:37.740Z,10.13
2018-09-05T18:28:06.001Z,14.63
2018-09-05T18:30:34.428Z,20.17
2018-09-05T18:33:03.187Z,16.63
2018-09-05T18:35:31.957Z,15.73
2018-09-05T18:38:02.105Z,22.77
2018-09-05T18:40:30.572Z,14.67
2018-09-05T18:42:59.178Z,15.40
2018-09-05T18:45:28.177Z,18.07
2018-09-05T18:47:56.940Z,14.80
2018-09-05T18:50:25.505Z,20.67
2018-09-05T18:52:59.493Z,15.90
2018-09-05T18:55:27.961Z,9.90
2018-09-05T18:57:56.834Z,11.20
2018-09-05T19:00:25.651Z,13.67
2018-09-05T19:02:54.169Z,10.67
2018-09-05T19:05:22.907Z,10.37
2018-09-05T19:07:51.386Z,13.30
2018-09-05T19:10:20.246Z,12.27
2018-09-05T19:12:48.370Z,10.33
2018-09-05T19:15:16.869Z,11.13
2018-09-05T19:17:45.607Z,10.47
2018-09-05T19:20:14.127Z,11.77
2018-09-05T19:22:43.949Z,18.63
2018-09-05T19:25:12.896Z,10.60
2018-09-05T19:27:42.057Z,9.67
2018-09-05T19:30:11.237Z,11.73
2018-09-05T19:32:40.110Z,12.77
2018-09-05T19:35:08.583Z,9.53
2018-09-05T19:37:37.910Z,13.63
2018-09-05T19:40:06.398Z,7.73
2018-09-05T19:42:35.715Z,8.50
2018-09-05T19:45:04.202Z,11.13
2018-09-05T19:47:32.358Z,10.80
2018-09-05T19:50:00.776Z,8.20
2018-09-05T19:52:29.547Z,7.73
2018-09-05T19:54:57.921Z,11.10
2018-09-05T19:57:26.765Z,7.80
2018-09-05T19:59:55.474Z,11.80
2018-09-05T20:02:24.203Z,12.70
2018-09-05T20:04:53.171Z,10.70
2018-09-05T20:07:21.995Z,11.27
2018-09-05T20:09:50.921Z,14.10
2018-09-05T20:12:20.181Z,8.23
2018-09-05T20:14:48.787Z,8.73
2018-09-05T20:17:17.666Z,10.37
2018-09-05T20:19:46.234Z,13.47
2018-09-05T20:22:14.965Z,10.23
2018-09-05T20:24:43.831Z,10.80
2018-09-05T20:27:12.632Z,8.97
2018-09-05T20:29:41.877Z,9.23
2018-09-05T20:32:10.665Z,9.10
2018-09-05T20:34:39.411Z,9.20
2018-09-05T20:37:08.163Z,9.67
2018-09-05T20:39:36.619Z,16.43
2018-09-05T20:42:04.698Z,13.10
2018-09-05T20:44:33.127Z,9.77
2018-09-05T20:47:01.878Z,9.50
2018-09-05T20:49:30.445Z,13.17
2018-09-05T20:51:58.928Z,9.20
2018-09-05T20:54:27.828Z,11.30
2018-09-05T20:56:56.662Z,8.80
2018-09-05T20:59:24.834Z,10.17
2018-09-05T21:01:53.403Z,12.83
2018-09-05T21:04:22.223Z,11.30
2018-09-05T21:06:51.331Z,14.53
2018-09-05T21:09:19.403Z,8.53
2018-09-05T21:11:48.242Z,9.83
2018-09-05T21:14:17.030Z,12.50
2018-09-05T21:16:45.779Z,10.87
2018-09-05T21:19:14.481Z,10.30
2018-09-05T21:21:43.206Z,9.57
2018-09-05T21:24:12.014Z,14.10
2018-09-05T21:26:40.738Z,10.30
2018-09-05T21:29:09.528Z,9.07
2018-09-05T21:31:38.667Z,11.97
2018-09-05T21:34:07.421Z,10.03
2018-09-05T21:36:36.159Z,10.97
2018-09-05T21:39:06.326Z,10.77
2018-09-05T21:41:36.803Z,9.70
2018-09-05T21:44:05.486Z,9.90
2018-09-05T21:46:34.415Z,9.87
2018-09-05T21:49:03.581Z,9.83
2018-09-05T21:51:32.351Z,10.77
2018-09-05T21:54:01.135Z,11.33
2018-09-05T21:56:29.908Z,10.13
2018-09-05T21:58:58.656Z,9.60
2018-09-05T22:01:27.810Z,9.30
2018-09-05T22:03:56.553Z,11.90
2018-09-05T22:06:25.270Z,10.17
2018-09-05T22:08:54.040Z,10.00
2018-09-05T22:11:24.156Z,13.83
2018-09-05T22:13:53.636Z,108.80
2018-09-05T22:16:23.340Z,13.30
2018-09-05T22:18:51.968Z,12.13
2018-09-05T22:21:20.504Z,9.77
2018-09-05T22:23:49.163Z,9.87
2018-09-05T22:26:17.630Z,11.90
2018-09-05T22:28:46.462Z,11.60
2018-09-05T22:31:15.537Z,16.83
2018-09-05T22:33:44.349Z,11.67
2018-09-05T22:36:12.786Z,10.83
2018-09-05T22:38:41.528Z,11.77
2018-09-05T22:41:10.254Z,12.63
2018-09-05T22:43:50.206Z,12.97
2018-09-05T22:46:29.997Z,11.80
2018-09-05T22:49:09.944Z,11.47
2018-09-05T22:52:20.246Z,11.23
2018-09-05T22:55:37.114Z,13.27
2018-09-05T22:58:17.603Z,11.57
2018-09-05T23:00:58.107Z,15.67
2018-09-05T23:03:38.291Z,13.77
2018-09-05T23:06:17.060Z,12.43
2018-09-05T23:08:46.327Z,13.80
2018-09-05T23:11:27.928Z,13.33
2018-09-05T23:14:07.467Z,15.30
2018-09-05T23:18:52.616Z,11.43
2018-09-05T23:21:22.621Z,11.43
2018-09-05T23:24:07.705Z,13.43
2018-09-05T23:26:35.792Z,11.80
2018-09-05T23:29:03.866Z,11.80
2018-09-05T23:31:32.408Z,15.27
2018-09-05T23:34:01.175Z,14.40
2018-09-05T23:36:29.240Z,11.20
2018-09-05T23:38:57.619Z,13.23
2018-09-05T23:41:26.325Z,12.07
2018-09-05T23:43:54.895Z,13.60
2018-09-05T23:46:23.618Z,12.37
2018-09-05T23:48:52.357Z,12.93
2018-09-05T23:51:20.796Z,11.40
2018-09-05T23:53:49.396Z,10.87
2018-09-05T23:56:18.202Z,11.77
2018-09-05T23:58:46.966Z,11.63
